sensor_id;sensor_type;location;lat;lon;timestamp;pressure;altitude;pressure_sealevel;temperature;humidity
72038;BME280;59900;50.788;12.904;2023-07-13T00:01:57;97327.13;;;19.85;68.72
72038;BME280;59900;50.788;12.904;2023-07-13T00:04:24;97315.41;;;19.86;70.02
72038;BME280;59900;50.788;12.904;2023-07-13T00:06:50;97308.97;;;19.82;70.62
72038;BME280;59900;50.788;12.904;2023-07-13T00:09:17;97319.34;;;19.79;70.72
72038;BME280;59900;50.788;12.904;2023-07-13T00:11:43;97314.81;;;19.79;70.20
72038;BME280;59900;50.788;12.904;2023-07-13T00:14:09;97306.81;;;19.74;69.97
72038;BME280;59900;50.788;12.904;2023-07-13T00:16:36;97309.97;;;19.66;69.77
72038;BME280;59900;50.788;12.904;2023-07-13T00:19:02;97312.59;;;19.61;69.39
72038;BME280;59900;50.788;12.904;2023-07-13T00:21:28;97310.94;;;19.55;69.43
72038;BME280;59900;50.788;12.904;2023-07-13T00:23:53;97312.78;;;19.49;70.23
72038;BME280;59900;50.788;12.904;2023-07-13T00:26:18;97308.47;;;19.43;72.24
72038;BME280;59900;50.788;12.904;2023-07-13T00:28:43;97314.28;;;19.35;71.34
72038;BME280;59900;50.788;12.904;2023-07-13T00:31:10;97322.47;;;19.29;71.33
72038;BME280;59900;50.788;12.904;2023-07-13T00:33:35;97328.28;;;19.21;73.15
72038;BME280;59900;50.788;12.904;2023-07-13T00:36:02;97340.53;;;19.17;73.43
72038;BME280;59900;50.788;12.904;2023-07-13T00:38:28;97346.88;;;19.11;73.44
72038;BME280;59900;50.788;12.904;2023-07-13T00:40:53;97339.94;;;19.10;74.17
72038;BME280;59900;50.788;12.904;2023-07-13T00:43:21;97335.16;;;19.12;74.58
72038;BME280;59900;50.788;12.904;2023-07-13T00:48:17;97331.69;;;19.11;72.62
72038;BME280;59900;50.788;12.904;2023-07-13T00:50:47;97327.16;;;19.12;72.25
72038;BME280;59900;50.788;12.904;2023-07-13T00:53:13;97319.97;;;19.12;72.11
72038;BME280;59900;50.788;12.904;2023-07-13T00:55:39;97317.06;;;19.14;72.61
72038;BME280;59900;50.788;12.904;2023-07-13T00:58:05;97315.78;;;19.21;73.43
72038;BME280;59900;50.788;12.904;2023-07-13T01:00:33;97297.66;;;19.23;73.12
72038;BME280;59900;50.788;12.904;2023-07-13T01:02:59;97300.34;;;19.23;72.57
72038;BME280;59900;50.788;12.904;2023-07-13T01:05:26;97297.94;;;19.22;73.45
72038;BME280;59900;50.788;12.904;2023-07-13T01:07:52;97305.66;;;19.23;71.58
72038;BME280;59900;50.788;12.904;2023-07-13T01:10:21;97299.50;;;19.18;72.16
72038;BME280;59900;50.788;12.904;2023-07-13T01:12:47;97296.50;;;19.09;71.71
72038;BME280;59900;50.788;12.904;2023-07-13T01:15:41;97303.94;;;19.02;72.05
72038;BME280;59900;50.788;12.904;2023-07-13T01:18:10;97307.13;;;19.04;72.06
72038;BME280;59900;50.788;12.904;2023-07-13T01:20:36;97303.88;;;18.97;71.76
72038;BME280;59900;50.788;12.904;2023-07-13T01:23:11;97295.59;;;18.93;72.27
72038;BME280;59900;50.788;12.904;2023-07-13T01:25:38;97308.34;;;18.91;74.28
72038;BME280;59900;50.788;12.904;2023-07-13T01:28:05;97308.34;;;18.91;73.81
72038;BME280;59900;50.788;12.904;2023-07-13T01:30:31;97311.53;;;18.88;73.99
72038;BME280;59900;50.788;12.904;2023-07-13T01:32:57;97311.72;;;18.82;74.20
72038;BME280;59900;50.788;12.904;2023-07-13T01:35:22;97305.66;;;18.86;75.09
72038;BME280;59900;50.788;12.904;2023-07-13T01:37:48;97299.28;;;18.87;75.37
72038;BME280;59900;50.788;12.904;2023-07-13T01:40:13;97299.84;;;18.89;75.91
72038;BME280;59900;50.788;12.904;2023-07-13T01:42:38;97297.69;;;18.86;76.99
72038;BME280;59900;50.788;12.904;2023-07-13T01:45:04;97297.69;;;18.86;75.96
72038;BME280;59900;50.788;12.904;2023-07-13T01:47:30;97297.41;;;18.88;75.91
72038;BME280;59900;50.788;12.904;2023-07-13T01:49:57;97290.50;;;18.87;76.52
72038;BME280;59900;50.788;12.904;2023-07-13T01:52:23;97302.72;;;18.88;76.65
72038;BME280;59900;50.788;12.904;2023-07-13T01:54:48;97301.16;;;18.87;75.87
72038;BME280;59900;50.788;12.904;2023-07-13T01:57:13;97311.81;;;18.87;77.61
72038;BME280;59900;50.788;12.904;2023-07-13T01:59:38;97307.47;;;18.81;78.33
72038;BME280;59900;50.788;12.904;2023-07-13T02:02:04;97318.69;;;18.83;76.62
72038;BME280;59900;50.788;12.904;2023-07-13T02:04:29;97315.16;;;18.77;78.11
72038;BME280;59900;50.788;12.904;2023-07-13T02:06:54;97314.13;;;18.78;77.27
72038;BME280;59900;50.788;12.904;2023-07-13T02:09:20;97313.00;;;18.74;75.59
72038;BME280;59900;50.788;12.904;2023-07-13T02:11:46;97316.53;;;18.80;75.62
72038;BME280;59900;50.788;12.904;2023-07-13T02:14:11;97312.72;;;18.71;73.88
72038;BME280;59900;50.788;12.904;2023-07-13T02:16:36;97311.31;;;18.63;73.42
72038;BME280;59900;50.788;12.904;2023-07-13T02:19:01;97300.69;;;18.63;73.98
72038;BME280;59900;50.788;12.904;2023-07-13T02:21:27;97299.59;;;18.64;75.46
72038;BME280;59900;50.788;12.904;2023-07-13T02:23:52;97304.69;;;18.66;75.71
72038;BME280;59900;50.788;12.904;2023-07-13T02:26:18;97303.06;;;18.65;75.22
72038;BME280;59900;50.788;12.904;2023-07-13T02:28:43;97303.63;;;18.67;74.73
72038;BME280;59900;50.788;12.904;2023-07-13T02:31:11;97304.41;;;18.67;74.53
72038;BME280;59900;50.788;12.904;2023-07-13T02:33:36;97307.88;;;18.68;74.87
72038;BME280;59900;50.788;12.904;2023-07-13T02:36:02;97310.34;;;18.74;74.21
72038;BME280;59900;50.788;12.904;2023-07-13T02:38:28;97304.50;;;18.72;75.52
72038;BME280;59900;50.788;12.904;2023-07-13T02:40:53;97304.50;;;18.72;76.14
72038;BME280;59900;50.788;12.904;2023-07-13T02:43:19;97308.47;;;18.70;76.33
72038;BME280;59900;50.788;12.904;2023-07-13T02:45:45;97314.53;;;18.65;74.45
72038;BME280;59900;50.788;12.904;2023-07-13T02:48:10;97310.75;;;18.61;72.75
72038;BME280;59900;50.788;12.904;2023-07-13T02:50:36;97315.78;;;18.58;72.99
72038;BME280;59900;50.788;12.904;2023-07-13T02:53:01;97311.81;;;18.60;72.75
72038;BME280;59900;50.788;12.904;2023-07-13T02:55:26;97320.34;;;18.62;73.15
72038;BME280;59900;50.788;12.904;2023-07-13T02:57:51;97318.81;;;18.66;73.54
72038;BME280;59900;50.788;12.904;2023-07-13T03:00:17;97320.97;;;18.69;74.38
72038;BME280;59900;50.788;12.904;2023-07-13T03:02:42;97322.53;;;18.70;73.50
72038;BME280;59900;50.788;12.904;2023-07-13T03:05:08;97328.38;;;18.67;75.14
72038;BME280;59900;50.788;12.904;2023-07-13T03:07:35;97333.19;;;18.70;75.53
72038;BME280;59900;50.788;12.904;2023-07-13T03:10:01;97332.31;;;18.60;78.04
72038;BME280;59900;50.788;12.904;2023-07-13T03:12:27;97337.38;;;18.61;77.80
72038;BME280;59900;50.788;12.904;2023-07-13T03:14:52;97339.47;;;18.59;76.20
72038;BME280;59900;50.788;12.904;2023-07-13T03:17:17;97341.63;;;18.62;75.83
72038;BME280;59900;50.788;12.904;2023-07-13T03:19:42;97346.97;;;18.62;75.18
72038;BME280;59900;50.788;12.904;2023-07-13T03:22:09;97346.97;;;18.62;75.84
72038;BME280;59900;50.788;12.904;2023-07-13T03:24:34;97351.44;;;18.57;75.26
72038;BME280;59900;50.788;12.904;2023-07-13T03:27:01;97342.34;;;18.53;72.99
72038;BME280;59900;50.788;12.904;2023-07-13T03:29:27;97343.16;;;18.53;73.05
72038;BME280;59900;50.788;12.904;2023-07-13T03:31:52;97338.13;;;18.57;74.23
72038;BME280;59900;50.788;12.904;2023-07-13T03:34:17;97340.97;;;18.50;77.05
72038;BME280;59900;50.788;12.904;2023-07-13T03:36:43;97345.63;;;18.38;77.92
72038;BME280;59900;50.788;12.904;2023-07-13T03:39:08;97345.56;;;18.33;78.30
72038;BME280;59900;50.788;12.904;2023-07-13T03:41:34;97356.69;;;18.30;78.61
72038;BME280;59900;50.788;12.904;2023-07-13T03:43:59;97353.72;;;18.26;79.76
72038;BME280;59900;50.788;12.904;2023-07-13T03:46:25;97359.81;;;18.22;80.07
72038;BME280;59900;50.788;12.904;2023-07-13T03:48:50;97359.94;;;18.10;80.50
72038;BME280;59900;50.788;12.904;2023-07-13T03:51:16;97365.44;;;18.04;81.49
72038;BME280;59900;50.788;12.904;2023-07-13T03:53:44;97365.38;;;17.99;81.59
72038;BME280;59900;50.788;12.904;2023-07-13T03:56:09;97364.81;;;17.97;81.46
72038;BME280;59900;50.788;12.904;2023-07-13T03:58:38;97371.13;;;17.90;81.71
72038;BME280;59900;50.788;12.904;2023-07-13T04:01:06;97375.00;;;17.83;82.31
72038;BME280;59900;50.788;12.904;2023-07-13T04:03:32;97384.59;;;17.84;81.79
72038;BME280;59900;50.788;12.904;2023-07-13T04:05:59;97374.28;;;17.87;82.05
72038;BME280;59900;50.788;12.904;2023-07-13T04:08:35;97381.34;;;17.99;81.59
72038;BME280;59900;50.788;12.904;2023-07-13T04:11:02;97378.41;;;18.00;80.41
72038;BME280;59900;50.788;12.904;2023-07-13T04:13:27;97380.56;;;18.03;80.26
72038;BME280;59900;50.788;12.904;2023-07-13T04:15:53;97376.63;;;18.06;80.02
72038;BME280;59900;50.788;12.904;2023-07-13T04:18:19;97375.09;;;18.10;79.00
72038;BME280;59900;50.788;12.904;2023-07-13T04:20:48;97364.44;;;18.10;78.95
72038;BME280;59900;50.788;12.904;2023-07-13T04:23:15;97371.13;;;18.12;80.15
72038;BME280;59900;50.788;12.904;2023-07-13T04:25:43;97365.75;;;18.07;80.50
72038;BME280;59900;50.788;12.904;2023-07-13T04:28:08;97366.56;;;18.08;81.70
72038;BME280;59900;50.788;12.904;2023-07-13T04:30:34;97364.94;;;18.07;82.17
72038;BME280;59900;50.788;12.904;2023-07-13T04:32:59;97364.94;;;18.07;82.86
72038;BME280;59900;50.788;12.904;2023-07-13T04:35:25;97367.53;;;18.02;81.47
72038;BME280;59900;50.788;12.904;2023-07-13T04:37:50;97372.97;;;17.90;81.68
72038;BME280;59900;50.788;12.904;2023-07-13T04:40:17;97373.88;;;17.79;81.75
72038;BME280;59900;50.788;12.904;2023-07-13T04:42:43;97377.75;;;17.71;82.36
72038;BME280;59900;50.788;12.904;2023-07-13T04:45:09;97377.38;;;17.63;82.49
72038;BME280;59900;50.788;12.904;2023-07-13T04:47:34;97371.19;;;17.57;82.47
72038;BME280;59900;50.788;12.904;2023-07-13T04:49:59;97390.34;;;17.59;82.54
72038;BME280;59900;50.788;12.904;2023-07-13T04:52:24;97391.00;;;17.66;82.52
72038;BME280;59900;50.788;12.904;2023-07-13T04:54:50;97390.25;;;17.71;82.49
72038;BME280;59900;50.788;12.904;2023-07-13T04:57:15;97391.94;;;17.77;82.38
72038;BME280;59900;50.788;12.904;2023-07-13T04:59:40;97394.84;;;17.75;81.31
72038;BME280;59900;50.788;12.904;2023-07-13T05:02:06;97394.59;;;17.77;80.76
72038;BME280;59900;50.788;12.904;2023-07-13T05:04:31;97401.34;;;17.84;80.24
72038;BME280;59900;50.788;12.904;2023-07-13T05:06:56;97401.75;;;17.93;79.79
72038;BME280;59900;50.788;12.904;2023-07-13T05:09:22;97407.34;;;17.97;80.50
72038;BME280;59900;50.788;12.904;2023-07-13T05:11:47;97401.78;;;17.98;80.53
72038;BME280;59900;50.788;12.904;2023-07-13T05:14:12;97390.91;;;18.00;80.77
72038;BME280;59900;50.788;12.904;2023-07-13T05:16:37;97399.94;;;17.99;80.76
72038;BME280;59900;50.788;12.904;2023-07-13T05:19:03;97403.41;;;17.99;80.15
72038;BME280;59900;50.788;12.904;2023-07-13T05:21:28;97401.53;;;18.00;79.70
72038;BME280;59900;50.788;12.904;2023-07-13T05:23:53;97397.66;;;18.07;80.01
72038;BME280;59900;50.788;12.904;2023-07-13T05:26:19;97401.72;;;18.15;79.02
72038;BME280;59900;50.788;12.904;2023-07-13T05:28:46;97401.88;;;18.25;77.88
72038;BME280;59900;50.788;12.904;2023-07-13T05:31:11;97399.31;;;18.35;77.03
72038;BME280;59900;50.788;12.904;2023-07-13T05:33:36;97408.78;;;18.47;76.71
72038;BME280;59900;50.788;12.904;2023-07-13T05:36:02;97399.78;;;18.49;75.78
72038;BME280;59900;50.788;12.904;2023-07-13T05:38:28;97408.59;;;18.49;76.36
72038;BME280;59900;50.788;12.904;2023-07-13T05:40:55;97415.25;;;18.52;77.59
72038;BME280;59900;50.788;12.904;2023-07-13T05:43:21;97415.97;;;18.47;77.78
72038;BME280;59900;50.788;12.904;2023-07-13T05:45:46;97412.34;;;18.53;77.94
72038;BME280;59900;50.788;12.904;2023-07-13T05:48:11;97418.50;;;18.59;77.01
72038;BME280;59900;50.788;12.904;2023-07-13T05:50:37;97410.66;;;18.69;76.39
72038;BME280;59900;50.788;12.904;2023-07-13T05:53:02;97420.66;;;18.83;75.85
72038;BME280;59900;50.788;12.904;2023-07-13T05:55:27;97417.53;;;18.91;74.29
72038;BME280;59900;50.788;12.904;2023-07-13T05:57:53;97428.84;;;19.03;74.64
72038;BME280;59900;50.788;12.904;2023-07-13T06:00:18;97432.97;;;19.16;76.03
72038;BME280;59900;50.788;12.904;2023-07-13T06:02:43;97424.19;;;19.21;70.93
72038;BME280;59900;50.788;12.904;2023-07-13T06:05:09;97430.06;;;19.23;70.16
72038;BME280;59900;50.788;12.904;2023-07-13T06:07:34;97429.81;;;19.19;70.00
72038;BME280;59900;50.788;12.904;2023-07-13T06:09:59;97436.78;;;19.25;70.27
72038;BME280;59900;50.788;12.904;2023-07-13T06:12:25;97438.38;;;19.26;70.24
72038;BME280;59900;50.788;12.904;2023-07-13T06:14:51;97448.31;;;19.36;71.25
72038;BME280;59900;50.788;12.904;2023-07-13T06:17:16;97442.75;;;19.37;69.25
72038;BME280;59900;50.788;12.904;2023-07-13T06:19:42;97445.19;;;19.39;70.61
72038;BME280;59900;50.788;12.904;2023-07-13T06:22:07;97444.13;;;19.40;70.01
72038;BME280;59900;50.788;12.904;2023-07-13T06:24:32;97443.13;;;19.46;67.00
72038;BME280;59900;50.788;12.904;2023-07-13T06:26:57;97450.38;;;19.55;67.80
72038;BME280;59900;50.788;12.904;2023-07-13T06:29:23;97447.75;;;19.61;68.00
72038;BME280;59900;50.788;12.904;2023-07-13T06:31:48;97439.00;;;19.65;66.90
72038;BME280;59900;50.788;12.904;2023-07-13T06:34:13;97450.25;;;19.72;67.85
72038;BME280;59900;50.788;12.904;2023-07-13T06:36:38;97450.59;;;19.86;67.38
72038;BME280;59900;50.788;12.904;2023-07-13T06:39:04;97451.13;;;19.88;67.23
72038;BME280;59900;50.788;12.904;2023-07-13T06:41:29;97450.63;;;19.91;66.11
72038;BME280;59900;50.788;12.904;2023-07-13T06:43:56;97452.22;;;19.87;66.95
72038;BME280;59900;50.788;12.904;2023-07-13T06:46:22;97457.28;;;19.88;67.34
72038;BME280;59900;50.788;12.904;2023-07-13T06:48:47;97464.94;;;19.75;66.65
72038;BME280;59900;50.788;12.904;2023-07-13T06:51:12;97461.94;;;19.66;67.89
72038;BME280;59900;50.788;12.904;2023-07-13T06:53:38;97463.78;;;19.66;67.15
72038;BME280;59900;50.788;12.904;2023-07-13T06:56:03;97466.28;;;19.77;67.97
72038;BME280;59900;50.788;12.904;2023-07-13T06:58:28;97470.38;;;19.90;68.43
72038;BME280;59900;50.788;12.904;2023-07-13T07:00:54;97469.63;;;19.99;67.38
72038;BME280;59900;50.788;12.904;2023-07-13T07:03:19;97464.09;;;20.11;67.07
72038;BME280;59900;50.788;12.904;2023-07-13T07:05:44;97468.69;;;20.21;67.51
72038;BME280;59900;50.788;12.904;2023-07-13T07:08:10;97458.00;;;20.21;65.78
72038;BME280;59900;50.788;12.904;2023-07-13T07:10:35;97462.88;;;20.29;63.90
72038;BME280;59900;50.788;12.904;2023-07-13T07:13:01;97462.88;;;20.29;62.14
72038;BME280;59900;50.788;12.904;2023-07-13T07:15:27;97468.00;;;20.35;62.25
72038;BME280;59900;50.788;12.904;2023-07-13T07:17:53;97470.66;;;20.35;60.63
72038;BME280;59900;50.788;12.904;2023-07-13T07:20:18;97465.34;;;20.40;59.97
72038;BME280;59900;50.788;12.904;2023-07-13T07:22:43;97471.53;;;20.51;61.30
72038;BME280;59900;50.788;12.904;2023-07-13T07:25:08;97468.88;;;20.51;61.51
72038;BME280;59900;50.788;12.904;2023-07-13T07:27:34;97459.53;;;20.53;62.14
72038;BME280;59900;50.788;12.904;2023-07-13T07:29:59;97461.66;;;20.51;60.68
72038;BME280;59900;50.788;12.904;2023-07-13T07:32:24;97464.13;;;20.63;61.30
72038;BME280;59900;50.788;12.904;2023-07-13T07:34:50;97465.75;;;20.69;61.50
72038;BME280;59900;50.788;12.904;2023-07-13T07:37:15;97462.56;;;20.72;61.30
72038;BME280;59900;50.788;12.904;2023-07-13T07:39:40;97467.91;;;20.82;60.73
72038;BME280;59900;50.788;12.904;2023-07-13T07:42:06;97469.00;;;20.91;61.07
72038;BME280;59900;50.788;12.904;2023-07-13T07:44:32;97472.25;;;20.98;60.52
72038;BME280;59900;50.788;12.904;2023-07-13T07:46:58;97465.28;;;20.97;57.58
72038;BME280;59900;50.788;12.904;2023-07-13T07:49:23;97468.47;;;20.94;56.19
72038;BME280;59900;50.788;12.904;2023-07-13T07:51:49;97467.97;;;20.97;55.75
72038;BME280;59900;50.788;12.904;2023-07-13T07:54:14;97464.22;;;20.98;56.20
72038;BME280;59900;50.788;12.904;2023-07-13T07:56:39;97475.44;;;21.00;55.27
72038;BME280;59900;50.788;12.904;2023-07-13T07:59:05;97478.13;;;21.00;55.85
72038;BME280;59900;50.788;12.904;2023-07-13T08:01:30;97479.22;;;21.04;56.03
72038;BME280;59900;50.788;12.904;2023-07-13T08:03:55;97481.34;;;21.07;55.95
72038;BME280;59900;50.788;12.904;2023-07-13T08:06:21;97473.91;;;21.14;56.62
72038;BME280;59900;50.788;12.904;2023-07-13T08:08:47;97474.72;;;21.20;56.41
72038;BME280;59900;50.788;12.904;2023-07-13T08:11:12;97475.78;;;21.24;56.15
72038;BME280;59900;50.788;12.904;2023-07-13T08:13:37;97482.75;;;21.30;55.36
72038;BME280;59900;50.788;12.904;2023-07-13T08:16:06;97482.50;;;21.37;56.47
72038;BME280;59900;50.788;12.904;2023-07-13T08:18:32;97485.94;;;21.37;54.26
72038;BME280;59900;50.788;12.904;2023-07-13T08:20:57;97486.78;;;21.43;54.33
72038;BME280;59900;50.788;12.904;2023-07-13T08:23:24;97489.72;;;21.46;53.98
72038;BME280;59900;50.788;12.904;2023-07-13T08:25:53;97496.38;;;21.49;54.53
72038;BME280;59900;50.788;12.904;2023-07-13T08:28:20;97494.28;;;21.46;54.09
72038;BME280;59900;50.788;12.904;2023-07-13T08:30:45;97506.81;;;21.35;53.22
72038;BME280;59900;50.788;12.904;2023-07-13T08:33:17;97501.19;;;21.27;53.80
72038;BME280;59900;50.788;12.904;2023-07-13T08:35:46;97504.09;;;21.20;53.49
72038;BME280;59900;50.788;12.904;2023-07-13T08:38:11;97502.50;;;21.14;52.76
72038;BME280;59900;50.788;12.904;2023-07-13T08:40:36;97503.56;;;21.13;52.79
72038;BME280;59900;50.788;12.904;2023-07-13T08:43:02;97505.97;;;21.14;53.09
72038;BME280;59900;50.788;12.904;2023-07-13T08:45:43;97495.56;;;21.13;52.73
72038;BME280;59900;50.788;12.904;2023-07-13T08:53:15;97497.47;;;21.38;53.40
72038;BME280;59900;50.788;12.904;2023-07-13T08:55:42;97506.56;;;21.42;52.51
72038;BME280;59900;50.788;12.904;2023-07-13T08:58:12;97501.47;;;21.55;53.29
72038;BME280;59900;50.788;12.904;2023-07-13T09:00:44;97510.31;;;21.56;50.45
72038;BME280;59900;50.788;12.904;2023-07-13T09:03:19;97509.25;;;21.62;49.72
72038;BME280;59900;50.788;12.904;2023-07-13T09:05:51;97521.84;;;21.71;48.06
72038;BME280;59900;50.788;12.904;2023-07-13T09:08:43;97515.16;;;21.69;49.16
72038;BME280;59900;50.788;12.904;2023-07-13T09:11:27;97520.50;;;21.74;49.54
72038;BME280;59900;50.788;12.904;2023-07-13T09:14:04;97509.81;;;21.89;49.19
72038;BME280;59900;50.788;12.904;2023-07-13T09:16:32;97506.31;;;22.09;49.84
72038;BME280;59900;50.788;12.904;2023-07-13T09:19:04;97515.66;;;22.26;49.89
72038;BME280;59900;50.788;12.904;2023-07-13T09:21:37;97512.97;;;22.31;48.24
72038;BME280;59900;50.788;12.904;2023-07-13T09:24:39;97514.84;;;22.31;48.11
72038;BME280;59900;50.788;12.904;2023-07-13T09:27:14;97513.22;;;22.45;48.56
72038;BME280;59900;50.788;12.904;2023-07-13T09:30:10;97513.72;;;22.52;48.11
72038;BME280;59900;50.788;12.904;2023-07-13T09:32:30;97514.25;;;22.59;48.46
72038;BME280;59900;50.788;12.904;2023-07-13T09:34:56;97516.94;;;22.54;47.35
72038;BME280;59900;50.788;12.904;2023-07-13T09:37:27;97513.97;;;22.56;47.92
72038;BME280;59900;50.788;12.904;2023-07-13T09:39:54;97519.84;;;22.63;47.68
72038;BME280;59900;50.788;12.904;2023-07-13T09:42:22;97518.25;;;22.72;47.70
72038;BME280;59900;50.788;12.904;2023-07-13T09:47:25;97516.91;;;22.74;46.64
72038;BME280;59900;50.788;12.904;2023-07-13T09:50:08;97527.34;;;22.71;46.94
72038;BME280;59900;50.788;12.904;2023-07-13T09:52:47;97530.03;;;22.61;47.32
72038;BME280;59900;50.788;12.904;2023-07-13T09:55:25;97538.94;;;22.36;49.24
72038;BME280;59900;50.788;12.904;2023-07-13T09:57:50;97535.22;;;22.17;49.73
72038;BME280;59900;50.788;12.904;2023-07-13T10:00:27;97530.16;;;22.10;50.50
72038;BME280;59900;50.788;12.904;2023-07-13T10:03:04;97543.53;;;22.00;49.83
72038;BME280;59900;50.788;12.904;2023-07-13T10:05:38;97550.72;;;21.85;49.65
72038;BME280;59900;50.788;12.904;2023-07-13T10:08:04;97547.78;;;21.71;50.11
72038;BME280;59900;50.788;12.904;2023-07-13T10:10:32;97559.25;;;21.61;49.30
72038;BME280;59900;50.788;12.904;2023-07-13T10:12:57;97558.97;;;21.53;49.98
72038;BME280;59900;50.788;12.904;2023-07-13T10:15:24;97548.28;;;21.58;50.37
72038;BME280;59900;50.788;12.904;2023-07-13T10:17:54;97556.84;;;21.55;50.17
72038;BME280;59900;50.788;12.904;2023-07-13T10:20:20;97549.91;;;21.54;50.19
72038;BME280;59900;50.788;12.904;2023-07-13T10:25:18;97553.66;;;21.68;50.46
72038;BME280;59900;50.788;12.904;2023-07-13T10:27:44;97556.59;;;21.71;49.13
72038;BME280;59900;50.788;12.904;2023-07-13T10:30:26;97546.97;;;21.81;49.22
72038;BME280;59900;50.788;12.904;2023-07-13T10:32:53;97542.19;;;21.88;49.24
72038;BME280;59900;50.788;12.904;2023-07-13T10:35:20;97545.66;;;22.03;48.87
72038;BME280;59900;50.788;12.904;2023-07-13T10:37:54;97537.88;;;22.17;49.35
72038;BME280;59900;50.788;12.904;2023-07-13T10:40:26;97529.81;;;22.37;49.58
72038;BME280;59900;50.788;12.904;2023-07-13T10:42:57;97533.00;;;22.54;48.44
72038;BME280;59900;50.788;12.904;2023-07-13T10:45:24;97533.25;;;22.63;47.17
72038;BME280;59900;50.788;12.904;2023-07-13T10:47:51;97534.59;;;22.60;45.83
72038;BME280;59900;50.788;12.904;2023-07-13T10:50:26;97528.69;;;22.58;45.57
72038;BME280;59900;50.788;12.904;2023-07-13T10:53:01;97520.41;;;22.65;46.38
72038;BME280;59900;50.788;12.904;2023-07-13T10:58:01;97527.56;;;22.84;46.84
72038;BME280;59900;50.788;12.904;2023-07-13T11:00:26;97525.88;;;23.04;46.53
72038;BME280;59900;50.788;12.904;2023-07-13T11:02:59;97533.31;;;23.17;45.72
72038;BME280;59900;50.788;12.904;2023-07-13T11:05:26;97529.81;;;23.16;45.05
72038;BME280;59900;50.788;12.904;2023-07-13T11:08:13;97531.25;;;23.04;43.42
72038;BME280;59900;50.788;12.904;2023-07-13T11:10:55;97518.59;;;23.14;44.31
72038;BME280;59900;50.788;12.904;2023-07-13T11:16:13;97525.22;;;23.27;43.32
72038;BME280;59900;50.788;12.904;2023-07-13T11:21:29;97514.19;;;23.33;42.54
72038;BME280;59900;50.788;12.904;2023-07-13T11:31:40;97506.81;;;23.59;40.86
72038;BME280;59900;50.788;12.904;2023-07-13T11:34:13;97506.72;;;23.69;41.62
72038;BME280;59900;50.788;12.904;2023-07-13T11:36:43;97505.50;;;23.85;41.36
72038;BME280;59900;50.788;12.904;2023-07-13T11:39:25;97512.25;;;23.83;40.83
72038;BME280;59900;50.788;12.904;2023-07-13T11:41:57;97513.41;;;23.72;41.95
72038;BME280;59900;50.788;12.904;2023-07-13T11:44:26;97513.53;;;23.57;41.54
72038;BME280;59900;50.788;12.904;2023-07-13T11:47:07;97513.09;;;23.34;42.44
72038;BME280;59900;50.788;12.904;2023-07-13T11:49:41;97513.09;;;23.34;43.36
72038;BME280;59900;50.788;12.904;2023-07-13T11:52:11;97506.13;;;23.38;44.07
72038;BME280;59900;50.788;12.904;2023-07-13T11:54:50;97510.13;;;23.41;43.31
72038;BME280;59900;50.788;12.904;2023-07-13T11:57:29;97507.19;;;23.37;42.80
72038;BME280;59900;50.788;12.904;2023-07-13T12:00:01;97514.41;;;23.37;42.96
72038;BME280;59900;50.788;12.904;2023-07-13T12:02:30;97511.47;;;23.43;41.82
72038;BME280;59900;50.788;12.904;2023-07-13T12:04:58;97505.84;;;23.35;42.32
72038;BME280;59900;50.788;12.904;2023-07-13T12:07:28;97511.66;;;23.52;43.03
72038;BME280;59900;50.788;12.904;2023-07-13T12:10:03;97512.31;;;23.73;43.65
72038;BME280;59900;50.788;12.904;2023-07-13T12:12:36;97508.81;;;23.77;41.42
72038;BME280;59900;50.788;12.904;2023-07-13T12:15:06;97506.34;;;23.81;40.82
72038;BME280;59900;50.788;12.904;2023-07-13T12:17:34;97503.41;;;23.82;41.95
72038;BME280;59900;50.788;12.904;2023-07-13T12:20:00;97506.59;;;23.84;42.33
72038;BME280;59900;50.788;12.904;2023-07-13T12:22:27;97504.06;;;23.98;41.84
72038;BME280;59900;50.788;12.904;2023-07-13T12:24:52;97506.13;;;24.11;42.22
72038;BME280;59900;50.788;12.904;2023-07-13T12:27:22;97505.66;;;24.28;41.63
72038;BME280;59900;50.788;12.904;2023-07-13T12:29:50;97510.06;;;24.47;41.34
72038;BME280;59900;50.788;12.904;2023-07-13T12:32:18;97515.63;;;24.27;40.69
72038;BME280;59900;50.788;12.904;2023-07-13T12:35:12;97509.06;;;24.38;40.82
72038;BME280;59900;50.788;12.904;2023-07-13T12:37:42;97499.34;;;24.66;40.45
72038;BME280;59900;50.788;12.904;2023-07-13T12:40:14;97502.25;;;24.70;40.63
72038;BME280;59900;50.788;12.904;2023-07-13T12:42:40;97506.78;;;25.17;40.73
72038;BME280;59900;50.788;12.904;2023-07-13T12:45:21;97511.34;;;25.58;39.61
72038;BME280;59900;50.788;12.904;2023-07-13T12:47:49;97497.53;;;26.11;40.95
72038;BME280;59900;50.788;12.904;2023-07-13T12:50:18;97492.91;;;26.57;39.15
72038;BME280;59900;50.788;12.904;2023-07-13T12:52:44;97499.16;;;26.85;37.06
72038;BME280;59900;50.788;12.904;2023-07-13T12:55:18;97500.63;;;26.64;35.27
72038;BME280;59900;50.788;12.904;2023-07-13T12:57:52;97497.22;;;26.58;35.68
72038;BME280;59900;50.788;12.904;2023-07-13T13:00:26;97494.31;;;26.41;36.39
72038;BME280;59900;50.788;12.904;2023-07-13T13:02:55;97507.81;;;25.77;36.36
72038;BME280;59900;50.788;12.904;2023-07-13T13:05:21;97505.88;;;25.45;37.14
72038;BME280;59900;50.788;12.904;2023-07-13T13:07:51;97512.69;;;25.00;37.31
72038;BME280;59900;50.788;12.904;2023-07-13T13:10:17;97508.78;;;24.87;38.64
72038;BME280;59900;50.788;12.904;2023-07-13T13:12:42;97508.66;;;24.74;38.10
72038;BME280;59900;50.788;12.904;2023-07-13T13:15:11;97517.94;;;24.63;38.25
72038;BME280;59900;50.788;12.904;2023-07-13T13:17:39;97495.97;;;24.56;39.07
72038;BME280;59900;50.788;12.904;2023-07-13T13:20:24;97505.41;;;24.53;38.88
72038;BME280;59900;50.788;12.904;2023-07-13T13:22:51;97520.03;;;24.18;38.84